Time;durP1;ratioP1;P1;durP2;ratioP2;P2;SDS_P1;SDS_P2;PMS_P1;PMS_P2;Temp;Humidity;BMP_temperature;BMP_pressure;BME280_temperature;BME280_humidity;BME280_pressure;Samples;Min_cycle;Max_cycle;Signal;HPM_P1;HPM_P2
2022/04/07 00:00:04;;;;;;;5.45;4.95;;;;;;;8.64;100.00;162822.75;5013957;28;20062;-62
2022/04/07 00:02:29;;;;;;;5.68;5.18;;;;;;;8.66;100.00;162828.16;5012887;28;20050;-62
2022/04/07 00:04:54;;;;;;;8.38;6.53;;;;;;;8.62;100.00;162817.34;5014404;28;20037;-61
2022/04/07 00:07:20;;;;;;;8.55;7.30;;;;;;;8.57;100.00;162806.56;5012643;28;20045;-61
2022/04/07 00:09:45;;;;;;;5.63;5.13;;;;;;;8.52;100.00;162793.09;5014500;28;20044;-62
2022/04/07 00:12:10;;;;;;;6.05;5.45;;;;;;;8.50;100.00;162787.72;5012747;28;20044;-61
2022/04/07 00:14:36;;;;;;;9.23;7.03;;;;;;;8.51;100.00;162790.41;5013534;28;20034;-61
2022/04/07 00:17:01;;;;;;;9.10;6.60;;;;;;;8.53;100.00;162795.75;5013162;28;20037;-61
2022/04/07 00:19:26;;;;;;;6.47;5.63;;;;;;;8.54;100.00;162797.16;5014257;28;20465;-62
2022/04/07 00:21:52;;;;;;;5.90;5.03;;;;;;;8.55;100.00;162801.16;5012587;28;20046;-61
2022/04/07 00:24:17;;;;;;;7.05;6.10;;;;;;;8.59;100.00;162809.28;5014025;28;20032;-62
2022/04/07 00:26:42;;;;;;;6.43;5.82;;;;;;;8.56;100.00;162802.53;5012702;28;20046;-62
2022/04/07 00:29:08;;;;;;;6.32;5.50;;;;;;;8.55;100.00;162801.16;5014221;28;20030;-62
2022/04/07 00:31:39;;;;;;;6.05;5.47;;;;;;;8.55;100.00;162801.16;5012275;28;20034;-61
2022/04/07 00:34:06;;;;;;;5.85;5.30;;;;;;;8.55;100.00;162801.16;5014213;28;20105;-62
2022/04/07 00:36:31;;;;;;;7.20;5.13;;;;;;;8.55;100.00;162801.16;5012685;28;20045;-62
2022/04/07 00:38:57;;;;;;;6.85;6.10;;;;;;;8.47;100.00;162778.28;5013414;28;20666;-62
2022/04/07 00:41:22;;;;;;;6.63;6.03;;;;;;;8.34;100.00;162744.50;5012150;28;20046;-60
2022/04/07 00:43:51;;;;;;;6.57;6.05;;;;;;;8.17;100.00;162701.38;5013878;28;20029;-60
2022/04/07 00:46:17;;;;;;;6.82;6.20;;;;;;;8.16;100.00;162698.66;5010967;28;20042;-60
2022/04/07 00:48:42;;;;;;;6.53;5.97;;;;;;;8.13;100.00;162689.22;5014021;28;20021;-60
2022/04/07 00:51:08;;;;;;;8.75;6.75;;;;;;;8.11;100.00;162685.19;5012451;28;20100;-61
2022/04/07 00:53:34;;;;;;;7.88;6.78;;;;;;;8.17;100.00;162701.38;5012934;28;20033;-61
2022/04/07 00:56:01;;;;;;;7.18;5.47;;;;;;;8.20;100.00;162708.09;5012075;28;20022;-60
2022/04/07 00:58:28;;;;;;;6.55;5.88;;;;;;;8.22;100.00;162714.88;5013601;28;20022;-60
2022/04/07 01:00:53;;;;;;;7.03;5.65;;;;;;;8.23;100.00;162716.22;5011578;28;20052;-61
2022/04/07 01:03:19;;;;;;;7.45;6.85;;;;;;;8.22;100.00;162714.88;5013589;28;20026;-61
2022/04/07 01:05:44;;;;;;;7.13;6.05;;;;;;;8.17;100.00;162701.38;5013318;28;20037;-61
2022/04/07 01:08:09;;;;;;;7.40;5.63;;;;;;;8.16;100.00;162698.66;5011541;28;20038;-61
2022/04/07 01:10:35;;;;;;;6.72;5.78;;;;;;;8.16;100.00;162698.66;5013184;28;20405;-60
2022/04/07 01:13:01;;;;;;;7.47;5.72;;;;;;;8.15;100.00;162694.63;5012053;28;20109;-62
2022/04/07 01:15:26;;;;;;;6.05;4.60;;;;;;;8.14;100.00;162693.31;5012657;28;20025;-62
2022/04/07 01:17:51;;;;;;;8.02;6.88;;;;;;;8.16;100.00;162697.34;5011841;28;20085;-62
2022/04/07 01:20:17;;;;;;;6.05;5.40;;;;;;;8.14;100.00;162693.31;5012685;28;20078;-62
2022/04/07 01:22:45;;;;;;;8.48;5.63;;;;;;;8.11;100.00;162685.19;5011369;28;20096;-61
2022/04/07 01:25:10;;;;;;;5.85;4.45;;;;;;;8.13;100.00;162690.63;5013443;28;20030;-61
2022/04/07 01:27:36;;;;;;;6.60;4.47;;;;;;;8.17;100.00;162701.38;5011434;28;20405;-61
2022/04/07 01:30:11;;;;;;;9.43;6.38;;;;;;;8.21;100.00;162710.81;5012795;28;20029;-61
2022/04/07 01:32:45;;;;;;;14.70;7.32;;;;;;;8.27;100.00;162726.97;5011369;28;20081;-61
2022/04/07 01:35:12;;;;;;;8.30;4.65;;;;;;;8.33;100.00;162741.81;5012792;28;20555;-61
2022/04/07 01:37:40;;;;;;;4.95;3.47;;;;;;;8.35;100.00;162747.22;5011057;28;20068;-62
2022/04/07 01:40:07;;;;;;;6.90;3.45;;;;;;;8.43;100.00;162768.78;5012936;28;20041;-61
2022/04/07 01:42:33;;;;;;;5.45;3.60;;;;;;;8.47;100.00;162779.59;5010933;28;20433;-62
2022/04/07 01:45:02;;;;;;;6.97;3.95;;;;;;;8.50;100.00;162787.72;5012414;28;20208;-62
2022/04/07 01:47:28;;;;;;;7.60;2.80;;;;;;;8.50;100.00;162787.72;5011121;28;20049;-62
2022/04/07 01:50:00;;;;;;;11.27;3.45;;;;;;;8.44;100.00;162771.50;5012167;28;20485;-62
2022/04/07 01:52:27;;;;;;;6.72;3.13;;;;;;;8.49;100.00;162785.00;5010750;28;20149;-62
2022/04/07 01:54:53;;;;;;;3.95;2.92;;;;;;;8.49;100.00;162785.00;5012612;28;20109;-62
2022/04/07 01:57:23;;;;;;;8.00;3.53;;;;;;;8.49;100.00;162783.69;5010851;28;20049;-62
2022/04/07 01:59:50;;;;;;;6.18;2.55;;;;;;;8.47;100.00;162778.28;5012065;28;20595;-62
2022/04/07 02:02:15;;;;;;;15.00;4.25;;;;;;;8.43;100.00;162768.78;5010760;28;20129;-62
2022/04/07 02:05:08;;;;;;;5.22;2.72;;;;;;;8.41;100.00;162763.38;5012379;28;20022;-62
2022/04/07 02:07:34;;;;;;;11.05;3.95;;;;;;;8.29;100.00;162731.03;5010246;28;20103;-62
2022/04/07 02:10:00;;;;;;;9.68;3.95;;;;;;;8.18;100.00;162704.06;5012535;28;20604;-62
2022/04/07 02:12:27;;;;;;;11.18;5.30;;;;;;;8.05;100.00;162669.03;5010445;28;20125;-62
2022/04/07 02:14:53;;;;;;;7.75;3.97;;;;;;;8.01;100.00;162658.22;5011711;28;20056;-62
2022/04/07 02:17:20;;;;;;;11.18;4.50;;;;;;;7.92;100.00;162635.34;5010504;28;20042;-62
2022/04/07 02:19:50;;;;;;;11.18;4.63;;;;;;;7.88;100.00;162625.91;5012418;28;20032;-61
2022/04/07 02:22:17;;;;;;;6.03;4.30;;;;;;;7.82;100.00;162609.75;5010239;28;20046;-61
2022/04/07 02:24:42;;;;;;;15.73;6.28;;;;;;;7.76;100.00;162593.59;5012358;28;20025;-61
2022/04/07 02:27:08;;;;;;;10.18;5.85;;;;;;;7.73;100.00;162586.88;5010711;28;20052;-61
2022/04/07 02:29:37;;;;;;;6.18;5.68;;;;;;;7.68;100.00;162572.03;5011480;28;20053;-61
2022/04/07 02:32:03;;;;;;;7.57;5.63;;;;;;;7.63;100.00;162561.22;5010681;28;20038;-61
2022/04/07 02:34:28;;;;;;;12.27;6.75;;;;;;;7.57;100.00;162545.06;5011377;28;20041;-61
2022/04/07 02:36:54;;;;;;;12.55;6.35;;;;;;;7.55;100.00;162538.34;5009907;28;20092;-61
2022/04/07 02:39:19;;;;;;;7.65;6.63;;;;;;;7.53;100.00;162534.31;5011822;28;20401;-61
2022/04/07 02:41:44;;;;;;;14.98;7.15;;;;;;;7.51;100.00;162528.91;5010468;28;20033;-61
2022/04/07 02:44:10;;;;;;;7.88;6.57;;;;;;;7.53;100.00;162534.31;5011080;28;20046;-61
2022/04/07 02:46:35;;;;;;;7.63;6.20;;;;;;;7.52;100.00;162531.59;5010258;28;20044;-60
2022/04/07 02:49:00;;;;;;;17.15;6.90;;;;;;;7.54;100.00;162535.63;5011921;28;20033;-61
2022/04/07 02:51:26;;;;;;;11.25;7.70;;;;;;;7.54;100.00;162537.00;5009667;28;20041;-58
2022/04/07 02:53:57;;;;;;;16.10;8.05;;;;;;;7.53;100.00;162534.31;5011836;28;20041;-62
2022/04/07 02:56:23;;;;;;;8.02;7.18;;;;;;;7.54;100.00;162537.00;5009736;28;20033;-62
2022/04/07 02:58:48;;;;;;;13.30;6.20;;;;;;;7.54;100.00;162537.00;5010923;28;20044;-62
2022/04/07 03:01:14;;;;;;;10.90;7.80;;;;;;;7.53;100.00;162534.31;5009795;28;20049;-62
2022/04/07 03:03:40;;;;;;;11.27;6.25;;;;;;;7.51;100.00;162528.91;5011649;28;20030;-62
2022/04/07 03:06:05;;;;;;;11.68;6.75;;;;;;;7.51;100.00;162528.91;5009726;28;20042;-62
2022/04/07 03:08:32;;;;;;;13.50;6.10;;;;;;;7.51;100.00;162528.91;5010877;28;20030;-62
2022/04/07 03:10:58;;;;;;;13.48;6.03;;;;;;;7.52;100.00;162531.59;5009991;28;20032;-62
2022/04/07 03:13:23;;;;;;;14.73;7.75;;;;;;;7.50;100.00;162526.19;5011051;28;20385;-62
2022/04/07 03:15:49;;;;;;;14.85;5.88;;;;;;;7.52;100.00;162530.28;5009905;28;20026;-60
2022/04/07 03:18:14;;;;;;;14.85;6.28;;;;;;;7.49;100.00;162523.50;5010969;28;20041;-62
2022/04/07 03:20:40;;;;;;;14.63;6.30;;;;;;;7.47;100.00;162518.16;5011002;28;20033;-62
2022/04/07 03:23:05;;;;;;;10.10;6.35;;;;;;;7.46;100.00;162515.44;5009661;28;20046;-62
2022/04/07 03:25:31;;;;;;;10.90;6.43;;;;;;;7.44;100.00;162511.44;5007956;28;20030;-63
2022/04/07 03:27:56;;;;;;;14.15;5.38;;;;;;;7.44;100.00;162511.44;4990085;28;20045;-62
2022/04/07 03:30:22;;;;;;;18.63;7.63;;;;;;;7.44;100.00;162510.06;4991493;28;20525;-62
2022/04/07 03:32:47;;;;;;;11.43;5.72;;;;;;;7.48;100.00;162520.84;4990081;28;20042;-62
2022/04/07 03:35:13;;;;;;;11.25;8.00;;;;;;;7.53;100.00;162534.31;4990776;28;20030;-62
2022/04/07 03:37:38;;;;;;;15.60;5.28;;;;;;;7.60;100.00;162553.16;4990083;28;20046;-63
2022/04/07 03:40:04;;;;;;;13.77;6.28;;;;;;;7.68;100.00;162573.34;4992764;28;20475;-61
2022/04/07 03:42:30;;;;;;;13.48;4.97;;;;;;;7.75;100.00;162590.88;5009070;28;20084;-59
2022/04/07 03:44:55;;;;;;;12.93;5.18;;;;;;;7.82;100.00;162609.75;5011269;28;20053;-61
2022/04/07 03:47:20;;;;;;;12.40;4.80;;;;;;;7.88;100.00;162625.91;5009306;28;20073;-61
2022/04/07 03:49:46;;;;;;;13.23;5.25;;;;;;;7.92;100.00;162636.72;5011015;28;20034;-61
2022/04/07 03:52:11;;;;;;;18.90;7.43;;;;;;;7.97;100.00;162648.81;5009621;28;20038;-61
2022/04/07 03:54:36;;;;;;;19.17;6.78;;;;;;;8.03;100.00;162663.63;5010921;28;20465;-60
2022/04/07 03:57:02;;;;;;;17.58;4.82;;;;;;;8.05;100.00;162670.38;5008915;28;20049;-61
2022/04/07 03:59:28;;;;;;;24.90;8.52;;;;;;;8.09;100.00;162679.81;5010540;28;20161;-61
2022/04/07 04:01:54;;;;;;;10.60;5.88;;;;;;;8.10;100.00;162682.50;5009606;28;20042;-61
2022/04/07 04:04:22;;;;;;;14.48;4.88;;;;;;;8.12;100.00;162687.91;5010190;28;20389;-60
2022/04/07 04:06:47;;;;;;;13.88;6.10;;;;;;;8.13;100.00;162690.63;5009615;28;20405;-61
2022/04/07 04:09:12;;;;;;;9.52;4.78;;;;;;;8.14;100.00;162691.94;5010712;28;20025;-61
2022/04/07 04:11:38;;;;;;;16.42;7.00;;;;;;;8.14;100.00;162693.31;5009051;28;20110;-57
2022/04/07 04:14:04;;;;;;;14.23;4.72;;;;;;;8.13;100.00;162689.22;5010589;28;20374;-57
2022/04/07 04:16:30;;;;;;;16.77;5.70;;;;;;;8.13;100.00;162690.63;5008883;28;20042;-56
2022/04/07 04:18:55;;;;;;;8.90;3.83;;;;;;;8.10;100.00;162682.50;5003628;28;20770;-56
2022/04/07 04:21:21;;;;;;;14.52;5.95;;;;;;;8.06;100.00;162671.75;5009884;28;20049;-56
2022/04/07 04:23:48;;;;;;;13.02;6.57;;;;;;;7.98;100.00;162651.50;5013492;28;20030;-56
2022/04/07 04:26:13;;;;;;;11.50;5.05;;;;;;;8.00;100.00;162656.91;5010637;28;20038;-56
2022/04/07 04:28:39;;;;;;;11.93;5.18;;;;;;;7.96;100.00;162644.78;5013778;28;20025;-56
2022/04/07 04:31:04;;;;;;;10.38;4.30;;;;;;;7.91;100.00;162632.63;5012319;28;20061;-56
2022/04/07 04:33:29;;;;;;;8.20;4.70;;;;;;;7.88;100.00;162624.59;5013146;28;20036;-56
2022/04/07 04:35:55;;;;;;;8.52;4.60;;;;;;;7.88;100.00;162625.91;5012416;28;20059;-56
2022/04/07 04:38:20;;;;;;;11.52;5.50;;;;;;;7.84;100.00;162615.16;5012817;28;20026;-56
2022/04/07 04:40:46;;;;;;;13.30;5.70;;;;;;;7.85;100.00;162617.84;5013494;28;20072;-56
2022/04/07 04:43:11;;;;;;;9.77;4.32;;;;;;;7.84;100.00;162615.16;5011771;28;20041;-56
2022/04/07 04:45:36;;;;;;;14.82;5.65;;;;;;;7.81;100.00;162605.72;5013676;28;20478;-56
2022/04/07 04:48:02;;;;;;;13.20;4.90;;;;;;;7.83;100.00;162612.44;5010713;28;20382;-56
2022/04/07 04:50:27;;;;;;;20.70;8.65;;;;;;;7.83;100.00;162612.44;5012875;28;20026;-56
2022/04/07 04:52:53;;;;;;;13.30;4.60;;;;;;;7.81;100.00;162607.06;5011841;28;20504;-56
2022/04/07 04:55:19;;;;;;;14.48;5.93;;;;;;;7.80;100.00;162604.34;5013248;28;20030;-56
2022/04/07 04:57:44;;;;;;;19.13;6.63;;;;;;;7.80;100.00;162604.34;5011638;28;20460;-56
2022/04/07 05:00:11;;;;;;;23.65;6.40;;;;;;;7.79;100.00;162601.66;5013178;28;20046;-56
2022/04/07 05:02:39;;;;;;;18.48;6.65;;;;;;;7.79;100.00;162601.66;5011538;28;20398;-56
2022/04/07 05:05:06;;;;;;;13.98;5.40;;;;;;;7.82;100.00;162608.44;5012804;28;20014;-56
2022/04/07 05:07:31;;;;;;;25.35;6.20;;;;;;;7.85;100.00;162617.84;5011465;28;20042;-56
2022/04/07 05:09:56;;;;;;;9.07;4.35;;;;;;;7.88;100.00;162625.91;5013666;28;20473;-56
2022/04/07 05:12:22;;;;;;;15.25;5.22;;;;;;;7.98;100.00;162650.19;5004662;28;20453;-56
2022/04/07 05:14:47;;;;;;;15.82;5.97;;;;;;;7.99;100.00;162652.88;5002630;28;20048;-56
2022/04/07 05:17:12;;;;;;;12.07;3.67;;;;;;;8.05;100.00;162669.03;5014701;28;20038;-56
2022/04/07 05:19:38;;;;;;;13.68;5.30;;;;;;;8.09;100.00;162679.81;5021561;28;20026;-56
2022/04/07 05:22:04;;;;;;;13.45;5.38;;;;;;;8.15;100.00;162696.00;5025577;28;20547;-56
2022/04/07 05:24:29;;;;;;;6.20;3.33;;;;;;;8.23;100.00;162716.22;5021460;28;20018;-56
2022/04/07 05:26:55;;;;;;;12.35;4.10;;;;;;;8.21;100.00;162712.19;5020796;28;20040;-56
2022/04/07 05:29:20;;;;;;;8.85;4.47;;;;;;;8.24;100.00;162720.25;5023611;28;20067;-56
2022/04/07 05:31:45;;;;;;;5.85;3.20;;;;;;;8.29;100.00;162731.03;5021713;28;20420;-56
2022/04/07 05:34:13;;;;;;;9.38;4.22;;;;;;;8.35;100.00;162747.22;5021382;28;20129;-56
2022/04/07 05:36:39;;;;;;;16.48;5.90;;;;;;;8.40;100.00;162760.69;5020736;28;20149;-56
2022/04/07 05:39:05;;;;;;;12.52;4.88;;;;;;;8.38;100.00;162755.25;5023226;28;20472;-56
2022/04/07 05:41:31;;;;;;;11.88;4.65;;;;;;;8.33;100.00;162741.81;5019195;28;20038;-56
2022/04/07 05:43:56;;;;;;;12.88;5.07;;;;;;;8.30;100.00;162733.75;5022279;28;20040;-56
2022/04/07 05:46:21;;;;;;;6.28;3.97;;;;;;;8.29;100.00;162731.03;5021296;28;20029;-56
2022/04/07 05:48:47;;;;;;;13.35;3.28;;;;;;;8.26;100.00;162724.31;5020917;28;20036;-56
2022/04/07 05:51:13;;;;;;;8.15;3.10;;;;;;;8.26;100.00;162725.63;5021044;28;20037;-56
2022/04/07 05:53:39;;;;;;;10.38;4.57;;;;;;;8.32;100.00;162739.09;5022097;28;20026;-56
2022/04/07 05:56:04;;;;;;;5.97;3.15;;;;;;;8.32;100.00;162740.47;5018772;28;20033;-56
2022/04/07 05:58:30;;;;;;;8.48;4.40;;;;;;;8.30;100.00;162733.75;5022606;28;20025;-56
2022/04/07 06:00:55;;;;;;;5.78;3.42;;;;;;;8.25;100.00;162722.94;5020214;28;20170;-56
2022/04/07 06:03:20;;;;;;;6.68;3.53;;;;;;;8.22;100.00;162713.50;5020469;28;20021;-56
2022/04/07 06:05:52;;;;;;;6.53;3.45;;;;;;;8.22;100.00;162714.88;5022746;28;20416;-56
2022/04/07 06:08:18;;;;;;;3.92;3.20;;;;;;;8.25;100.00;162722.94;5020340;28;20042;-56
2022/04/07 06:10:43;;;;;;;5.47;3.47;;;;;;;8.21;100.00;162712.19;5015194;28;20033;-56
2022/04/07 06:13:09;;;;;;;4.05;3.30;;;;;;;8.24;100.00;162720.25;5010902;28;20489;-56
2022/04/07 06:15:34;;;;;;;3.50;3.00;;;;;;;8.26;100.00;162724.31;5011448;28;20432;-56
2022/04/07 06:18:00;;;;;;;5.68;2.28;;;;;;;8.21;100.00;162712.19;5009522;28;20497;-56
2022/04/07 06:20:25;;;;;;;4.63;3.03;;;;;;;8.30;100.00;162733.75;5012024;28;20028;-56
2022/04/07 06:22:50;;;;;;;6.05;2.60;;;;;;;8.25;100.00;162722.94;5010502;28;20091;-56
2022/04/07 06:25:16;;;;;;;3.20;2.08;;;;;;;8.23;100.00;162717.53;5010915;28;20025;-56
2022/04/07 06:27:46;;;;;;;8.07;2.90;;;;;;;8.25;100.00;162722.94;5008812;28;20042;-56
2022/04/07 06:30:16;;;;;;;3.00;2.50;;;;;;;8.25;100.00;162722.94;5011139;28;20068;-56
2022/04/07 06:32:42;;;;;;;6.60;2.75;;;;;;;8.26;100.00;162725.63;5010303;28;20034;-56
2022/04/07 06:35:09;;;;;;;9.75;2.97;;;;;;;8.20;100.00;162708.09;5012226;28;20026;-56
2022/04/07 06:37:55;;;;;;;3.78;2.88;;;;;;;8.12;100.00;162687.91;5010046;28;20409;-58
2022/04/07 06:40:31;;;;;;;5.28;3.53;;;;;;;8.04;100.00;162667.66;5011388;28;20021;-56
2022/04/07 06:42:58;;;;;;;5.50;4.07;;;;;;;8.01;100.00;162658.22;5009756;28;20097;-56
2022/04/07 06:45:26;;;;;;;5.05;3.70;;;;;;;7.96;100.00;162646.16;5011708;28;20470;-56
2022/04/07 06:47:51;;;;;;;6.80;3.15;;;;;;;7.93;100.00;162639.38;5010161;28;20038;-57
2022/04/07 06:50:17;;;;;;;5.45;3.38;;;;;;;7.89;100.00;162628.63;5011621;28;20073;-56
2022/04/07 06:52:44;;;;;;;5.78;3.70;;;;;;;7.86;100.00;162619.19;5010323;28;20037;-56
2022/04/07 06:55:10;;;;;;;4.43;3.60;;;;;;;7.86;100.00;162619.19;5011303;28;20026;-56
2022/04/07 06:57:49;;;;;;;7.25;4.70;;;;;;;7.87;100.00;162621.88;5009458;28;20034;-57
2022/04/07 07:00:15;;;;;;;6.32;3.75;;;;;;;7.87;100.00;162621.88;5011395;28;20046;-57
2022/04/07 07:02:40;;;;;;;4.43;3.40;;;;;;;7.88;100.00;162624.59;5009912;28;20041;-57
2022/04/07 07:05:07;;;;;;;7.13;3.60;;;;;;;7.92;100.00;162636.72;5011819;28;20049;-57
2022/04/07 07:07:32;;;;;;;5.35;3.13;;;;;;;7.92;100.00;162636.72;5009919;28;20520;-57
2022/04/07 07:09:57;;;;;;;6.50;3.35;;;;;;;7.89;100.00;162628.63;5011319;28;20385;-57
2022/04/07 07:12:23;;;;;;;6.72;4.13;;;;;;;7.89;100.00;162628.63;5009781;28;20037;-57
2022/04/07 07:14:48;;;;;;;5.43;3.13;;;;;;;7.89;100.00;162628.63;5011309;28;20030;-57
2022/04/07 07:17:13;;;;;;;6.85;4.05;;;;;;;7.86;100.00;162620.50;5009466;28;20034;-56
2022/04/07 07:19:39;;;;;;;8.05;3.78;;;;;;;7.87;100.00;162621.88;5011321;28;20030;-56
2022/04/07 07:22:04;;;;;;;4.50;3.00;;;;;;;7.87;100.00;162623.22;5009732;28;20049;-56
2022/04/07 07:24:29;;;;;;;14.15;4.70;;;;;;;7.81;100.00;162607.06;5011018;28;20018;-55
2022/04/07 07:26:55;;;;;;;7.05;3.00;;;;;;;7.14;100.00;162431.94;5009939;28;20457;-55
2022/04/07 07:29:20;;;;;;;10.82;4.05;;;;;;;5.94;100.00;162118.22;5010931;28;20033;-56
2022/04/07 07:31:45;;;;;;;5.03;2.92;;;;;;;5.28;100.00;161946.00;5009568;28;20041;-56
2022/04/07 07:34:11;;;;;;;7.35;2.75;;;;;;;4.96;100.00;161863.94;5011153;28;20253;-56
2022/04/07 07:36:36;;;;;;;2.50;2.25;;;;;;;4.57;100.00;161761.78;5009820;28;20092;-56
2022/04/07 07:39:02;;;;;;;10.52;4.13;;;;;;;4.27;100.00;161683.81;5011153;28;20037;-56
2022/04/07 07:41:27;;;;;;;5.50;3.13;;;;;;;4.15;100.00;161651.50;5009754;28;20402;-56
2022/04/07 07:43:53;;;;;;;5.22;3.60;;;;;;;4.05;100.00;161626.00;5011227;28;20025;-56
2022/04/07 07:46:18;;;;;;;2.97;1.80;;;;;;;4.06;100.00;161628.69;5009209;28;20034;-56
2022/04/07 07:48:43;;;;;;;4.93;3.65;;;;;;;3.92;100.00;161592.38;5011429;28;20497;-56
2022/04/07 07:51:09;;;;;;;4.38;3.25;;;;;;;3.90;100.00;161588.38;5010062;28;20047;-55
2022/04/07 07:53:34;;;;;;;7.63;3.65;;;;;;;3.74;100.00;161546.72;5010635;28;20389;-56
2022/04/07 07:56:00;;;;;;;8.35;3.67;;;;;;;3.76;100.00;161552.06;5013258;28;20045;-56
2022/04/07 07:58:25;;;;;;;3.42;3.08;;;;;;;3.79;100.00;161560.16;5014598;28;20026;-56
2022/04/07 08:00:51;;;;;;;5.93;3.08;;;;;;;3.76;100.00;161552.06;5012897;28;20077;-56
2022/04/07 08:03:16;;;;;;;6.28;3.75;;;;;;;3.79;100.00;161560.16;5014429;28;20045;-56
2022/04/07 08:05:42;;;;;;;5.43;4.57;;;;;;;3.83;100.00;161568.22;5014878;28;20033;-56
2022/04/07 08:08:07;;;;;;;5.82;2.83;;;;;;;3.90;100.00;161587.03;5012926;28;20037;-56
2022/04/07 08:10:33;;;;;;;3.03;2.75;;;;;;;3.97;100.00;161605.84;5014380;28;20386;-56
2022/04/07 08:12:58;;;;;;;3.40;2.70;;;;;;;4.00;100.00;161612.56;5013547;28;20061;-56
2022/04/07 08:15:24;;;;;;;5.97;1.92;;;;;;;4.04;100.00;161623.28;5014265;28;20515;-56
2022/04/07 08:17:50;;;;;;;3.28;2.35;;;;;;;4.06;100.00;161630.00;5012751;28;20120;-56
2022/04/07 08:20:16;;;;;;;4.97;2.08;;;;;;;4.08;100.00;161635.41;5014437;28;20033;-56
2022/04/07 08:22:41;;;;;;;2.70;2.05;;;;;;;4.11;100.00;161642.09;5012811;28;20046;-55
2022/04/07 08:25:07;;;;;;;2.58;2.45;;;;;;;4.11;100.00;161643.47;5013989;28;20469;-56
2022/04/07 08:27:32;;;;;;;1.92;1.83;;;;;;;4.08;100.00;161635.41;5012646;28;20395;-56
2022/04/07 08:29:58;;;;;;;2.20;1.90;;;;;;;4.08;100.00;161635.41;5014522;28;20024;-55
2022/04/07 08:32:23;;;;;;;6.03;2.20;;;;;;;4.10;100.00;161640.78;5012323;28;20045;-55
2022/04/07 08:34:49;;;;;;;4.47;1.70;;;;;;;4.15;100.00;161652.88;5014303;28;20500;-55
2022/04/07 08:37:14;;;;;;;2.13;2.00;;;;;;;4.12;100.00;161644.81;5012544;28;20456;-55
2022/04/07 08:39:40;;;;;;;5.20;3.05;;;;;;;4.13;100.00;161647.50;5014050;28;20038;-55
2022/04/07 08:42:06;;;;;;;9.75;4.38;;;;;;;4.16;100.00;161654.22;5012752;28;20038;-55
2022/04/07 08:44:31;;;;;;;5.85;2.20;;;;;;;4.19;100.00;161662.31;5013710;28;20500;-55
2022/04/07 08:46:58;;;;;;;2.95;1.75;;;;;;;4.19;100.00;161662.31;5012205;28;20038;-56
2022/04/07 08:49:25;;;;;;;3.38;1.90;;;;;;;4.22;100.00;161670.34;5013899;28;20029;-55
2022/04/07 08:51:51;;;;;;;2.70;2.10;;;;;;;4.24;100.00;161675.72;5012560;28;20044;-56
2022/04/07 08:54:20;;;;;;;14.48;2.55;;;;;;;4.29;100.00;161689.16;5013413;28;20024;-55
2022/04/07 08:56:47;;;;;;;7.28;2.00;;;;;;;4.39;100.00;161716.06;5011996;28;20038;-56
2022/04/07 08:59:13;;;;;;;4.97;1.85;;;;;;;4.50;100.00;161744.28;5013469;28;20030;-56
2022/04/07 09:01:38;;;;;;;4.35;1.83;;;;;;;4.66;100.00;161785.94;5011554;28;20157;-56
2022/04/07 09:04:04;;;;;;;1.92;1.77;;;;;;;4.83;100.00;161828.97;5014005;28;20083;-56
2022/04/07 09:06:34;;;;;;;7.63;2.63;;;;;;;5.00;100.00;161874.72;5028207;28;20037;-56
2022/04/07 09:09:10;;;;;;;6.15;3.42;;;;;;;5.26;100.00;161941.94;5032669;28;20090;-56
2022/04/07 09:11:35;;;;;;;3.88;3.05;;;;;;;5.57;100.00;162022.66;5030483;28;20034;-56
2022/04/07 09:14:00;;;;;;;3.08;2.47;;;;;;;5.70;100.00;162056.31;5033137;28;20028;-56
2022/04/07 09:16:27;;;;;;;2.65;1.98;;;;;;;5.75;100.00;162068.44;5030910;28;20033;-56
2022/04/07 09:18:53;;;;;;;3.22;2.20;;;;;;;6.62;100.00;162297.28;5033341;28;20025;-56
2022/04/07 09:21:28;;;;;;;5.13;1.88;;;;;;;7.82;100.00;162609.75;5031050;28;20492;-55
2022/04/07 09:23:54;;;;;;;3.72;1.77;;;;;;;9.00;100.00;162917.13;5032883;28;20036;-56
2022/04/07 09:26:20;;;;;;;1.65;1.52;;;;;;;10.04;100.00;163188.25;5031544;28;20037;-56
2022/04/07 09:28:45;;;;;;;1.77;1.58;;;;;;;10.29;100.00;163255.72;5032788;28;20091;-56
2022/04/07 09:31:13;;;;;;;4.72;2.03;;;;;;;11.26;100.00;163509.56;5031071;28;20037;-56
2022/04/07 09:33:38;;;;;;;3.70;2.58;;;;;;;11.24;100.00;163502.81;5032946;28;20021;-56
2022/04/07 09:36:06;;;;;;;4.20;2.58;;;;;;;10.97;100.00;163432.63;5031334;28;20025;-56
2022/04/07 09:38:33;;;;;;;1.77;1.67;;;;;;;10.04;100.00;163189.59;5032183;28;20334;-56
2022/04/07 09:41:06;;;;;;;2.92;1.60;;;;;;;9.77;100.00;163118.06;5031404;28;20033;-55
2022/04/07 09:43:46;;;;;;;1.60;1.50;;;;;;;10.33;100.00;163265.16;5032339;28;20137;-55
2022/04/07 09:46:13;;;;;;;2.40;1.48;;;;;;;10.92;100.00;163419.06;5030562;28;20038;-56
2022/04/07 09:48:39;;;;;;;3.33;1.80;;;;;;;10.12;100.00;163211.19;5032623;28;20029;-56
2022/04/07 09:51:08;;;;;;;5.13;1.83;;;;;;;9.88;100.00;163146.41;5031160;28;20021;-56
2022/04/07 09:53:38;;;;;;;5.15;2.67;;;;;;;10.59;100.00;163332.72;5031198;28;20021;-56
2022/04/07 09:56:05;;;;;;;4.93;2.42;;;;;;;10.81;100.00;163389.41;5026126;28;20633;-56
2022/04/07 09:58:32;;;;;;;2.67;1.50;;;;;;;9.91;100.00;163154.50;5031362;28;20539;-56
2022/04/07 10:01:02;;;;;;;3.90;2.25;;;;;;;8.82;100.00;162869.94;5030317;28;20045;-56
2022/04/07 10:03:30;;;;;;;4.10;2.03;;;;;;;8.70;100.00;162838.91;5031903;28;20030;-56
2022/04/07 10:05:59;;;;;;;5.68;2.40;;;;;;;8.74;100.00;162849.72;5030785;28;20032;-56
2022/04/07 10:08:25;;;;;;;;;;;;;;;8.92;100.00;162895.53;5031905;28;20033;-56
2022/04/07 10:10:51;;;;;;;4.55;2.28;;;;;;;9.43;100.00;163030.38;5030227;28;20284;-56
2022/04/07 10:13:17;;;;;;;5.72;2.60;;;;;;;9.07;100.00;162936.00;5031368;28;20362;-56
2022/04/07 10:15:43;;;;;;;8.70;4.55;;;;;;;9.33;100.00;163003.44;5031180;28;20056;-56
2022/04/07 10:18:17;;;;;;;6.82;3.10;;;;;;;9.51;100.00;163050.66;5029250;28;20047;-56
2022/04/07 10:20:47;;;;;;;6.47;3.50;;;;;;;9.57;100.00;163066.81;5031409;28;20160;-56
2022/04/07 10:23:13;;;;;;;8.35;4.18;;;;;;;9.55;100.00;163060.09;5029949;28;20045;-56
2022/04/07 10:25:43;;;;;;;5.38;2.35;;;;;;;9.88;100.00;163146.41;5015274;28;20116;-56
2022/04/07 10:28:10;;;;;;;3.95;2.85;;;;;;;10.36;100.00;163273.25;5010604;28;20441;-56
2022/04/07 10:30:47;;;;;;;4.22;2.08;;;;;;;10.72;100.00;163366.47;5010906;28;20038;-56
2022/04/07 10:33:31;;;;;;;7.18;2.70;;;;;;;11.29;100.00;163516.28;5027652;28;20530;-56
2022/04/07 10:35:57;;;;;;;5.68;1.67;;;;;;;10.44;100.00;163294.91;5029891;28;20033;-55
2022/04/07 10:38:39;;;;;;;7.10;2.83;;;;;;;10.53;100.00;163316.53;5030298;28;20022;-55
2022/04/07 10:41:05;;;;;;;5.30;2.40;;;;;;;11.65;100.00;163610.88;5030156;28;20077;-55
2022/04/07 10:43:30;;;;;;;4.18;2.08;;;;;;;11.47;100.00;163562.22;5031160;28;20409;-56
2022/04/07 10:46:01;;;;;;;4.93;2.50;;;;;;;11.24;100.00;163502.81;5030335;28;20346;-55
2022/04/07 10:48:33;;;;;;;5.30;2.25;;;;;;;11.39;100.00;163543.31;5031314;28;20053;-56
2022/04/07 10:51:04;;;;;;;3.55;1.67;;;;;;;11.87;100.00;163668.94;5029757;28;20030;-56
2022/04/07 10:53:30;;;;;;;8.23;2.70;;;;;;;11.72;100.00;163629.78;5031350;28;20033;-56
2022/04/07 10:56:06;;;;;;;9.70;2.90;;;;;;;11.37;100.00;163536.56;5030099;28;20104;-55
2022/04/07 10:58:51;;;;;;;5.20;2.20;;;;;;;11.41;100.00;163548.75;5030923;28;20102;-56
2022/04/07 11:01:29;;;;;;;7.57;3.20;;;;;;;10.85;100.00;163400.19;5029098;28;20575;-56
2022/04/07 11:04:16;;;;;;;6.33;2.67;;;;;;;9.38;100.00;163016.91;5031697;28;20052;-56
2022/04/07 11:07:11;;;;;;;2.83;1.80;;;;;;;8.66;100.00;162829.47;5029596;28;20091;-56
2022/04/07 11:10:04;;;;;;;5.43;1.92;;;;;;;8.07;100.00;162674.44;5031063;28;20141;-56
2022/04/07 11:12:30;;;;;;;10.23;3.05;;;;;;;7.93;100.00;162639.38;5029500;28;20041;-56
2022/04/07 11:15:01;;;;;;;4.13;2.83;;;;;;;7.93;100.00;162639.38;5031058;28;20060;-56
2022/04/07 11:17:41;;;;;;;7.43;2.30;;;;;;;7.97;100.00;162647.47;5029298;28;20397;-55
2022/04/07 11:20:20;;;;;;;9.23;2.20;;;;;;;8.19;100.00;162705.44;5031141;28;20029;-56